Time;durP1;ratioP1;P1;durP2;ratioP2;P2;SDS_P1;SDS_P2;PMS_P1;PMS_P2;Temp;Humidity;BMP_temperature;BMP_pressure;BME280_temperature;BME280_humidity;BME280_pressure;Samples;Min_cycle;Max_cycle;Signal;HPM_P1;HPM_P2
2022/01/21 00:01:04;;;;;;;6.43;3.23;;;0.30;84.30;;;-1.21;85.07;98959.41;5076309;28;20481;-74
2022/01/21 00:03:31;;;;;;;6.47;3.80;;;0.40;83.00;;;-1.33;84.91;98955.03;5059241;28;20920;-76
2022/01/21 00:05:59;;;;;;;10.30;3.77;;;0.40;82.70;;;-1.38;85.01;98957.19;5082091;28;20481;-72
2022/01/21 00:08:26;;;;;;;4.57;3.70;;;0.30;82.40;;;-1.40;85.35;98951.16;5084277;28;20496;-74
2022/01/21 00:10:53;;;;;;;9.23;3.90;;;0.30;82.80;;;-1.41;85.45;98960.91;5086065;28;20464;-73
2022/01/21 00:13:24;;;;;;;5.50;3.50;;;0.20;83.60;;;-1.43;85.49;98952.22;5086523;28;20465;-73
2022/01/21 00:15:51;;;;;;;4.83;3.50;;;0.30;83.20;;;-1.45;85.17;98968.25;5085993;28;20442;-74
2022/01/21 00:18:19;;;;;;;8.03;3.73;;;0.30;83.20;;;-1.34;85.50;98963.94;5083294;28;20445;-73
2022/01/21 00:31:45;;;;;;;9.37;4.60;;;0.20;88.60;;;-1.57;88.70;98979.78;5074967;28;20909;-75
2022/01/21 00:34:12;;;;;;;8.50;4.83;;;0.10;88.80;;;-1.77;89.47;98950.28;5075696;28;20524;-76
2022/01/21 00:36:39;;;;;;;8.13;4.40;;;0.10;89.60;;;-1.59;89.69;98979.88;5058148;28;20940;-75
2022/01/21 00:39:08;;;;;;;7.63;3.57;;;0.10;90.10;;;-1.65;90.37;98987.44;5077908;28;20429;-75
2022/01/21 00:41:40;;;;;;;6.10;3.27;;;0.10;90.60;;;-1.80;92.06;98990.28;5085973;28;20473;-75
2022/01/21 00:44:07;;;;;;;5.67;2.93;;;0.00;93.60;;;-2.08;93.37;98959.66;5075739;28;20532;-75
2022/01/21 00:46:35;;;;;;;5.70;2.80;;;-0.20;95.00;;;-2.14;93.94;98977.66;5075208;28;20441;-75
2022/01/21 00:49:03;;;;;;;7.03;1.80;;;-0.30;95.90;;;-2.32;93.27;98984.28;5056881;28;20484;-74
2022/01/21 00:51:30;;;;;;;5.23;1.67;;;-0.50;93.50;;;-2.53;90.80;98991.94;5056633;28;20516;-74
2022/01/21 00:53:57;;;;;;;3.00;1.30;;;-0.70;91.00;;;-2.51;92.04;98995.31;5073676;28;20524;-72
2022/01/21 00:56:25;;;;;;;3.73;1.83;;;-0.70;92.20;;;-2.50;93.26;99007.59;5056750;28;20437;-74
2022/01/21 00:58:52;;;;;;;2.90;1.20;;;-0.80;94.60;;;-2.62;93.74;99015.47;5074391;28;21004;-73
2022/01/21 01:01:19;;;;;;;5.60;1.47;;;-0.80;94.70;;;-2.60;93.58;99018.84;5056627;28;20461;-75
2022/01/21 01:03:46;;;;;;;2.87;1.23;;;-0.80;95.40;;;-2.76;93.94;99019.06;5074451;28;20448;-75
2022/01/21 01:06:13;;;;;;;1.93;1.27;;;-0.90;95.00;;;-2.79;93.58;99016.63;5073177;28;20455;-75
2022/01/21 01:08:40;;;;;;;3.03;0.90;;;-1.00;93.90;;;-2.83;93.41;99028.38;5073974;28;20437;-75
2022/01/21 01:11:27;;;;;;;4.07;1.00;;;-1.00;94.10;;;-2.82;93.58;99024.78;5057249;28;20452;-76
2022/01/21 01:22:09;;;;;;;9.77;1.20;;;-1.20;94.70;;;-3.07;93.69;99036.19;5074024;28;20461;-76
2022/01/21 01:27:40;;;;;;;2.20;0.70;;;-1.30;94.10;;;-3.03;93.08;99038.53;5074044;28;20422;-75
2022/01/21 01:30:12;;;;;;;3.50;0.90;;;-1.20;93.30;;;-2.95;92.31;99055.66;5056838;28;20486;-75
2022/01/21 01:32:40;;;;;;;3.13;1.10;;;-1.20;92.30;;;-2.90;91.57;99051.75;5072864;28;20437;-75
2022/01/21 01:35:09;;;;;;;3.50;1.20;;;-1.20;91.80;;;-3.04;91.50;99057.13;5074205;28;20435;-75
2022/01/21 01:37:54;;;;;;;3.30;1.67;;;-1.20;91.30;;;-3.02;91.28;99056.09;5056017;28;20516;-76
2022/01/21 01:40:25;;;;;;;5.43;1.67;;;-1.20;91.40;;;-3.08;91.76;99066.22;5074030;28;20439;-76
2022/01/21 01:43:10;;;;;;;3.93;1.33;;;-1.30;91.80;;;-3.06;91.63;99056.38;5074514;28;20464;-74
2022/01/21 01:51:17;;;;;;;3.50;1.57;;;-1.00;90.40;;;-2.72;89.70;99070.84;5072945;28;20457;-75
2022/01/21 01:53:50;;;;;;;5.40;1.20;;;-1.00;89.50;;;-2.60;88.79;99065.63;5072537;28;20920;-75
2022/01/21 01:56:24;;;;;;;3.73;1.23;;;-0.90;88.10;;;-2.67;88.38;99067.00;5056551;28;20433;-75
2022/01/21 01:58:51;;;;;;;4.50;1.50;;;-0.90;87.20;;;-2.59;87.92;99062.03;5055537;28;20874;-75
2022/01/21 02:01:19;;;;;;;5.00;1.20;;;-0.90;87.20;;;-2.61;87.72;99080.66;5073666;28;20469;-74
2022/01/21 02:03:46;;;;;;;3.53;1.10;;;-0.90;85.70;;;-2.30;86.88;99086.50;5073631;28;20445;-74
2022/01/21 02:06:13;;;;;;;3.83;1.03;;;-0.70;85.40;;;-2.34;86.71;99077.06;5073627;28;20954;-74
2022/01/21 02:08:41;;;;;;;3.83;1.53;;;-0.60;84.00;;;-2.43;88.22;99080.34;5074035;28;20436;-75
2022/01/21 02:11:08;;;;;;;6.73;1.50;;;-0.70;86.40;;;-2.43;91.96;99075.06;5073870;28;20520;-75
2022/01/21 02:13:41;;;;;;;4.23;1.57;;;-0.70;92.50;;;-2.56;93.73;99069.78;5073793;28;20512;-74
2022/01/21 02:16:18;;;;;;;2.93;1.60;;;-0.80;94.70;;;-2.73;95.45;99065.63;5073215;28;20471;-74
2022/01/21 02:21:36;;;;;;;3.57;1.60;;;-1.00;99.90;;;-2.90;97.12;99059.69;5055568;28;20464;-74
2022/01/21 02:24:10;;;;;;;2.80;1.53;;;-1.00;99.90;;;-2.80;96.66;99077.59;5074323;28;20448;-74
2022/01/21 02:26:38;;;;;;;6.87;2.07;;;-1.10;99.90;;;-2.86;96.34;99073.56;5072968;28;20490;-74
2022/01/21 02:29:07;;;;;;;5.23;1.57;;;-1.10;99.90;;;-3.06;96.76;99081.03;5055787;28;20520;-72
2022/01/21 02:31:35;;;;;;;8.70;1.50;;;-1.30;99.90;;;-3.19;97.08;99082.78;5074227;28;20483;-73
2022/01/21 02:34:04;;;;;;;7.27;1.40;;;-1.30;99.90;;;-3.26;97.33;99074.44;5072392;28;20524;-74
2022/01/21 02:36:33;;;;;;;2.80;1.43;;;-1.40;99.90;;;-3.23;97.12;99074.22;5072451;28;20433;-75
2022/01/21 02:39:00;;;;;;;3.60;2.00;;;-1.40;99.90;;;-3.29;97.51;99085.19;5055724;28;20437;-74
2022/01/21 02:41:27;;;;;;;4.40;1.53;;;-1.50;99.90;;;-3.30;97.37;99084.34;5073425;28;20544;-73
2022/01/21 02:43:54;;;;;;;4.13;2.27;;;-1.50;99.90;;;-3.33;98.01;99094.28;5071606;28;20447;-73
2022/01/21 02:46:22;;;;;;;7.37;2.37;;;-1.50;99.90;;;-3.26;97.53;99098.22;5055258;28;20444;-73
2022/01/21 02:48:49;;;;;;;6.60;2.43;;;-1.50;99.90;;;-3.88;97.67;99015.84;5073560;28;20445;-74
2022/01/21 02:51:17;;;;;;;3.30;1.80;;;-1.60;99.90;;;-3.56;98.08;99083.41;5073546;28;20457;-73
2022/01/21 02:54:04;;;;;;;6.67;2.10;;;-1.70;99.90;;;-3.58;98.68;99106.44;5056827;28;20477;-77
2022/01/21 02:56:32;;;;;;;9.93;1.90;;;-1.70;99.90;;;-3.72;98.80;99092.31;5077140;28;20888;-77
2022/01/21 02:58:59;;;;;;;4.07;1.90;;;-1.80;99.90;;;-3.71;99.24;99101.94;5077271;28;20441;-76
2022/01/21 03:01:26;;;;;;;2.00;1.80;;;-1.90;99.90;;;-3.77;99.45;99106.78;5077107;28;20479;-77
2022/01/21 03:03:55;;;;;;;9.30;2.20;;;-2.00;99.90;;;-3.94;99.85;99094.63;5059577;28;20445;-76
2022/01/21 03:06:24;;;;;;;5.30;2.70;;;-2.10;99.90;;;-4.03;100.00;99104.81;5077421;28;20448;-76
2022/01/21 03:08:57;;;;;;;4.03;1.73;;;-2.20;99.90;;;-3.99;100.00;99108.09;5059206;28;20437;-76
2022/01/21 03:11:25;;;;;;;5.10;2.30;;;-2.20;99.90;;;-4.09;100.00;99106.97;5076933;28;20441;-76
2022/01/21 03:13:53;;;;;;;6.43;1.93;;;-2.20;99.90;;;-4.18;100.00;99105.75;5076738;28;20433;-76
2022/01/21 03:16:24;;;;;;;5.53;1.97;;;-2.30;99.90;;;-4.18;100.00;99113.69;5076686;28;20429;-76
2022/01/21 03:18:51;;;;;;;3.90;2.20;;;-2.30;99.90;;;-4.18;100.00;99103.97;5076540;28;20532;-77
2022/01/21 03:21:18;;;;;;;5.13;2.07;;;-2.30;99.90;;;-4.27;100.00;99121.22;5076615;28;20429;-76
2022/01/21 03:23:48;;;;;;;8.13;2.50;;;-2.40;99.90;;;-4.29;100.00;99131.03;5077082;28;20517;-77
2022/01/21 03:26:19;;;;;;;6.13;2.13;;;-2.50;99.90;;;-4.34;100.00;99134.91;5076705;28;20455;-77
2022/01/21 03:28:50;;;;;;;5.13;1.70;;;-2.50;99.90;;;-4.35;100.00;99134.03;5077382;28;20532;-77
2022/01/21 03:31:18;;;;;;;8.93;2.90;;;-2.60;99.90;;;-4.38;100.00;99130.75;5084518;28;20510;-77
2022/01/21 03:33:45;;;;;;;5.03;2.67;;;-2.60;99.90;;;-4.42;100.00;99127.44;5077961;28;20936;-76
2022/01/21 03:36:12;;;;;;;8.63;2.53;;;-2.60;99.90;;;-4.48;100.00;99125.16;5076091;28;20463;-76
2022/01/21 03:38:40;;;;;;;6.00;3.13;;;-2.70;99.90;;;-4.56;100.00;99115.94;5059182;28;20532;-76
2022/01/21 03:41:08;;;;;;;10.03;3.10;;;-2.60;99.90;;;-4.28;100.00;99130.09;5058277;28;20789;-76
2022/01/21 03:43:37;;;;;;;9.10;3.70;;;-2.50;99.90;;;-4.22;100.00;99139.44;5076591;28;20892;-76
2022/01/21 03:46:04;;;;;;;8.77;3.50;;;-2.40;99.90;;;-4.23;100.00;99136.88;5076918;28;20513;-75
2022/01/21 03:48:32;;;;;;;12.33;2.80;;;-2.40;99.90;;;-4.17;100.00;99132.06;5077348;28;20964;-75
2022/01/21 03:50:59;;;;;;;4.97;3.00;;;-2.30;99.90;;;-4.18;100.00;99150.63;5078849;28;20444;-74
2022/01/21 03:53:26;;;;;;;9.70;3.17;;;-2.40;99.90;;;-4.23;99.89;99143.00;5089819;28;20524;-74
2022/01/21 03:55:53;;;;;;;9.80;3.47;;;-2.40;99.90;;;-4.18;99.54;99150.63;5091974;28;20453;-74
2022/01/21 03:58:20;;;;;;;11.50;3.30;;;-2.40;99.90;;;-4.15;99.19;99158.38;5089504;28;20514;-74
2022/01/21 04:00:53;;;;;;;6.13;3.10;;;-2.40;99.90;;;-4.27;98.65;99147.63;5059707;28;20460;-75
2022/01/21 04:03:22;;;;;;;6.03;2.47;;;-2.40;99.90;;;-4.34;98.62;99151.56;5076486;28;20460;-74
2022/01/21 04:05:49;;;;;;;11.20;3.53;;;-2.40;99.90;;;-4.34;98.61;99156.84;5075015;28;20455;-76
2022/01/21 04:08:16;;;;;;;5.77;2.77;;;-2.50;99.90;;;-4.29;98.88;99148.66;5075528;28;20429;-75
2022/01/21 04:10:48;;;;;;;7.23;2.60;;;-2.40;99.90;;;-4.15;98.32;99150.47;5075484;28;20520;-74
2022/01/21 04:13:17;;;;;;;4.80;2.10;;;-2.40;99.90;;;-4.13;98.04;99151.22;5075694;28;20490;-74
2022/01/21 04:15:49;;;;;;;6.07;3.00;;;-2.30;99.90;;;-4.11;98.12;99149.34;5075899;28;20468;-74
2022/01/21 04:18:16;;;;;;;5.70;2.90;;;-2.30;99.90;;;-4.09;98.21;99155.34;5073968;28;20540;-74
2022/01/21 04:20:46;;;;;;;7.40;3.40;;;-2.30;99.90;;;-4.02;97.60;99156.69;5075595;28;20437;-74
2022/01/21 04:23:14;;;;;;;12.87;2.70;;;-2.20;99.90;;;-4.04;97.66;99155.09;5075179;28;20492;-72
2022/01/21 04:25:42;;;;;;;6.93;2.50;;;-2.30;99.90;;;-4.02;97.68;99166.41;5073489;28;20959;-73
2022/01/21 04:28:09;;;;;;;5.93;2.40;;;-2.20;99.90;;;-4.07;97.44;99158.75;5074836;28;20453;-72
2022/01/21 04:30:36;;;;;;;7.00;2.80;;;-2.20;99.90;;;-4.15;97.79;99148.66;5073969;28;20516;-75
2022/01/21 04:33:05;;;;;;;9.57;3.10;;;-2.30;99.90;;;-4.10;97.65;99158.06;5074473;28;20446;-74
2022/01/21 04:35:34;;;;;;;8.13;3.30;;;-2.30;99.90;;;-4.00;97.70;99157.44;5074741;28;20448;-73
2022/01/21 04:38:04;;;;;;;6.17;3.80;;;-2.20;99.90;;;-4.08;97.67;99172.06;5057102;28;20441;-73
2022/01/21 04:40:36;;;;;;;6.67;3.30;;;-2.30;99.90;;;-4.16;97.74;99164.59;5057028;28;20445;-75
2022/01/21 04:48:36;;;;;;;7.00;2.30;;;-2.30;99.90;;;-4.23;97.63;99189.66;5057090;28;20444;-73
2022/01/21 04:51:14;;;;;;;8.60;3.40;;;-2.40;99.90;;;-4.34;97.92;99191.16;5074480;28;20470;-73
2022/01/21 04:53:42;;;;;;;8.10;2.67;;;-2.50;99.90;;;-4.34;98.14;99199.06;5073574;28;20493;-73
2022/01/21 04:56:10;;;;;;;9.70;2.53;;;-2.50;99.90;;;-4.44;98.28;99195.28;5056908;28;20437;-73
2022/01/21 04:58:37;;;;;;;7.20;2.90;;;-2.60;99.90;;;-4.38;98.79;99202.84;5056756;28;20925;-74
2022/01/21 05:01:06;;;;;;;7.37;3.30;;;-2.60;99.90;;;-4.36;98.73;99197.47;5073210;28;21009;-74
2022/01/21 05:03:36;;;;;;;11.50;3.40;;;-2.60;99.90;;;-4.36;98.36;99195.66;5072932;28;20454;-75
2022/01/21 05:06:03;;;;;;;8.17;2.57;;;-2.50;99.90;;;-4.29;98.23;99191.75;5075375;28;20486;-75
2022/01/21 05:08:38;;;;;;;9.97;3.00;;;-2.50;99.90;;;-4.43;98.32;99194.34;5074417;28;20528;-76
2022/01/21 05:11:06;;;;;;;17.83;3.97;;;-2.50;99.90;;;-4.49;98.68;99197.34;5074263;28;20494;-75
2022/01/21 05:13:38;;;;;;;10.53;3.53;;;-2.60;99.90;;;-4.47;98.83;99203.41;5056409;28;20525;-75
2022/01/21 05:16:10;;;;;;;6.97;3.90;;;-2.60;99.90;;;-4.59;98.87;99205.81;5074600;28;20437;-77
2022/01/21 05:18:39;;;;;;;7.93;3.80;;;-2.70;99.90;;;-4.53;98.59;99209.03;5073403;28;20433;-76
2022/01/21 05:21:05;;;;;;;9.60;4.17;;;-2.70;99.90;;;-4.65;98.85;99211.44;5074002;28;20781;-75
2022/01/21 05:23:32;;;;;;;7.40;4.13;;;-2.80;99.90;;;-4.68;99.38;99216.06;5074208;28;20465;-74
2022/01/21 05:25:59;;;;;;;6.67;4.10;;;-2.80;99.90;;;-4.68;99.25;99222.16;5055798;28;20532;-76
2022/01/21 05:28:26;;;;;;;14.63;3.90;;;-2.80;99.90;;;-4.72;99.45;99223.28;5074198;28;20893;-75
2022/01/21 05:30:53;;;;;;;8.20;3.70;;;-2.90;99.90;;;-4.70;99.18;99226.69;5055638;28;20870;-75
2022/01/21 05:33:20;;;;;;;9.30;4.40;;;-2.90;99.90;;;-4.75;99.18;99229.56;5074469;28;20429;-74
2022/01/21 05:35:48;;;;;;;13.33;5.27;;;-2.90;99.90;;;-4.83;99.66;99231.81;5073808;28;20434;-74
2022/01/21 05:38:15;;;;;;;15.17;5.53;;;-3.00;99.90;;;-4.82;100.00;99235.28;5073564;28;20520;-78
2022/01/21 05:40:45;;;;;;;8.90;5.07;;;-3.00;99.90;;;-4.85;100.00;99225.78;5074790;28;20459;-77
2022/01/21 05:43:12;;;;;;;11.93;5.47;;;-3.00;99.90;;;-5.21;100.00;99168.94;5056170;28;20452;-76
2022/01/21 05:48:24;;;;;;;6.47;3.93;;;-3.00;99.90;;;-4.68;99.98;99232.72;5074942;28;20965;-81
2022/01/21 05:50:52;;;;;;;8.60;4.53;;;-2.90;99.90;;;-4.53;99.42;99230.13;5075077;28;20441;-75
2022/01/21 05:53:19;;;;;;;9.50;4.70;;;-2.80;99.90;;;-4.28;98.47;99225.09;5075968;28;20521;-82
2022/01/21 05:55:46;;;;;;;15.87;6.30;;;-2.70;99.90;;;-4.38;98.22;99229.22;5074909;28;20441;-81
2022/01/21 05:58:13;;;;;;;10.80;4.90;;;-2.60;99.90;;;-4.45;98.55;99223.47;5074748;28;20433;-82
2022/01/21 06:00:44;;;;;;;11.40;5.23;;;-2.70;99.90;;;-4.42;98.19;99222.44;5057170;28;20836;-79
2022/01/21 06:03:12;;;;;;;13.73;4.90;;;-2.70;99.90;;;-4.44;98.75;99233.06;5074635;28;20457;-80
2022/01/21 06:05:39;;;;;;;12.57;4.93;;;-2.70;99.90;;;-4.39;98.85;99230.16;5073886;28;20448;-84
2022/01/21 06:08:07;;;;;;;16.73;6.17;;;-2.70;99.90;;;-4.44;98.68;99237.50;5073963;28;20529;-83
2022/01/21 06:10:34;;;;;;;8.70;5.70;;;-2.70;99.90;;;-4.56;98.53;99242.56;5055681;28;20837;-81
2022/01/21 06:13:01;;;;;;;6.47;4.70;;;-2.80;99.90;;;-4.59;98.39;99253.28;5057142;28;20520;-82
2022/01/21 06:15:28;;;;;;;13.53;4.87;;;-2.90;99.90;;;-4.73;98.00;99263.78;5074164;28;20515;-80
2022/01/21 06:17:55;;;;;;;7.23;4.23;;;-3.00;99.90;;;-4.70;97.98;99266.25;5074130;28;20452;-85
2022/01/21 06:20:22;;;;;;;7.17;4.30;;;-3.00;99.90;;;-4.80;98.28;99268.56;5076425;28;20443;-82
2022/01/21 06:22:50;;;;;;;11.77;5.47;;;-3.10;99.90;;;-4.60;98.62;99259.50;5075345;28;20457;-84
2022/01/21 06:25:18;;;;;;;13.90;6.30;;;-3.00;99.90;;;-4.43;98.92;99255.03;5056927;28;20437;-83
2022/01/21 06:27:45;;;;;;;12.10;4.27;;;-2.80;99.90;;;-4.01;99.32;99250.81;5057585;28;20449;-82
2022/01/21 06:30:13;;;;;;;11.87;5.40;;;-2.60;99.90;;;-3.92;98.64;99259.09;5060144;28;20764;-82
2022/01/21 06:32:41;;;;;;;16.13;6.00;;;-2.40;99.90;;;-3.77;98.56;99262.63;5060316;28;20432;-84
2022/01/21 06:35:09;;;;;;;10.60;6.13;;;-2.20;99.90;;;-3.82;97.61;99251.47;5078536;28;20433;-83
2022/01/21 06:37:36;;;;;;;14.70;5.73;;;-2.10;99.90;;;-3.81;97.52;99269.88;5078423;28;20428;-84
2022/01/21 06:40:04;;;;;;;21.37;6.43;;;-2.10;99.90;;;-3.79;96.96;99265.34;5079114;28;20528;-85
2022/01/21 06:42:33;;;;;;;9.17;5.70;;;-2.10;99.90;;;-3.71;95.62;99265.75;5079267;28;20457;-83
2022/01/21 06:45:01;;;;;;;13.33;6.10;;;-2.00;99.90;;;-3.93;96.32;99271.47;5079426;28;20464;-84
2022/01/21 06:47:29;;;;;;;12.53;5.57;;;-2.20;99.30;;;-4.07;95.80;99277.56;5080152;28;20881;-85
2022/01/21 06:49:58;;;;;;;14.00;6.03;;;-2.30;97.80;;;-4.21;96.04;99266.97;5077781;28;20854;-85
2022/01/21 06:52:26;;;;;;;22.73;6.03;;;-2.30;99.70;;;-4.18;95.87;99278.19;5079998;28;20437;-86
2022/01/21 06:54:53;;;;;;;11.70;6.03;;;-2.40;99.50;;;-4.13;96.52;99281.41;5063808;28;20520;-83
2022/01/21 06:57:21;;;;;;;10.87;5.53;;;-2.40;99.90;;;-4.17;96.18;99279.03;5057710;28;20531;-82
2022/01/21 06:59:49;;;;;;;13.83;7.33;;;-2.50;99.90;;;-4.26;96.56;99269.88;5054817;28;20455;-83
2022/01/21 07:02:18;;;;;;;7.13;4.90;;;-2.50;99.90;;;-4.21;96.92;99272.25;5076927;28;20468;-83
2022/01/21 07:04:46;;;;;;;15.20;6.43;;;-2.50;99.90;;;-4.17;96.34;99285.19;5076695;28;20540;-84
2022/01/21 07:07:14;;;;;;;12.83;5.40;;;-2.40;99.90;;;-4.19;96.67;99286.19;5078391;28;20520;-82
2022/01/21 07:09:41;;;;;;;14.50;5.60;;;-2.50;99.90;;;-4.21;96.44;99282.81;5081851;28;20457;-83
2022/01/21 07:12:09;;;;;;;14.80;5.70;;;-2.50;99.90;;;-4.15;96.04;99274.53;5081746;28;20960;-70
2022/01/21 07:14:36;;;;;;;14.63;6.30;;;-2.40;99.90;;;-4.12;96.28;99282.28;5080938;28;20453;-74
2022/01/21 07:17:05;;;;;;;13.93;5.27;;;-2.40;99.90;;;-3.99;96.38;99280.59;5085185;28;20183;-72
2022/01/21 07:19:32;;;;;;;8.73;5.30;;;-2.30;99.90;;;-3.90;95.72;99275.69;5076679;28;20439;-72
2022/01/21 07:21:59;;;;;;;7.30;4.50;;;-2.20;99.90;;;-3.91;95.70;99288.06;5059124;28;20532;-75
2022/01/21 07:24:26;;;;;;;14.73;5.43;;;-2.20;99.80;;;-3.82;95.60;99281.38;5076873;28;20549;-79
2022/01/21 07:26:52;;;;;;;11.03;5.80;;;-2.10;99.90;;;-3.84;95.51;99283.28;5076794;28;20448;-78
2022/01/21 07:29:19;;;;;;;10.17;5.33;;;-2.10;97.90;;;-3.78;95.13;99280.25;5080112;28;20505;-78
2022/01/21 07:31:46;;;;;;;14.63;6.00;;;-2.10;98.20;;;-3.83;95.23;99282.31;5077325;28;20917;-78
2022/01/21 07:34:15;;;;;;;9.40;5.80;;;-2.10;97.60;;;-3.83;95.33;99271.75;5076991;28;20920;-79
2022/01/21 07:36:42;;;;;;;13.50;5.33;;;-2.10;98.40;;;-3.76;95.27;99273.06;5060096;28;20532;-79
2022/01/21 07:39:08;;;;;;;11.87;4.73;;;-2.00;98.00;;;-3.83;95.60;99271.75;5078491;28;20483;-77
2022/01/21 07:41:35;;;;;;;17.93;5.30;;;-2.00;97.80;;;-3.89;96.00;99265.06;5064070;28;20437;-77
2022/01/21 07:44:02;;;;;;;14.07;5.00;;;-2.00;99.20;;;-3.71;95.63;99271.03;5070929;28;20566;-77
2022/01/21 07:46:29;;;;;;;8.60;5.30;;;-2.00;99.50;;;-3.68;95.85;99277.88;5093824;28;20465;-75
2022/01/21 07:48:59;;;;;;;17.80;5.63;;;-2.00;99.10;;;-3.59;95.41;99277.34;5075328;28;20461;-78
2022/01/21 07:51:27;;;;;;;11.53;5.47;;;-1.90;98.50;;;-3.52;94.32;99274.31;5083456;28;20441;-81
2022/01/21 07:53:54;;;;;;;9.77;5.20;;;-1.80;96.50;;;-3.45;94.33;99271.19;5076905;28;20496;-80
2022/01/21 07:56:21;;;;;;;11.47;5.90;;;-1.80;96.60;;;-3.47;94.38;99262.50;5076033;28;20498;-79
2022/01/21 07:58:48;;;;;;;12.60;6.80;;;-1.70;96.60;;;-3.39;95.12;99277.06;5076323;28;20436;-80
2022/01/21 08:01:15;;;;;;;11.80;7.37;;;-1.80;97.70;;;-3.30;94.15;99266.75;5058755;28;20433;-78
2022/01/21 08:03:42;;;;;;;14.30;6.17;;;-1.70;97.40;;;-3.17;93.66;99263.34;5058314;28;20464;-81
2022/01/21 08:06:10;;;;;;;11.20;6.40;;;-1.60;97.10;;;-3.09;93.56;99266.34;5076874;28;20457;-77
2022/01/21 08:08:38;;;;;;;23.03;6.80;;;-1.50;95.60;;;-2.99;93.18;99271.88;5077978;28;20515;-76
2022/01/21 08:11:05;;;;;;;14.63;6.47;;;-1.40;95.00;;;-2.76;92.50;99274.84;5058574;28;21027;-78
2022/01/21 08:13:32;;;;;;;8.23;5.20;;;-1.20;93.90;;;-2.66;91.98;99262.69;5076517;28;20956;-78
2022/01/21 08:16:00;;;;;;;10.10;6.10;;;-1.00;92.40;;;-3.08;91.55;99179.94;5075825;28;20453;-78
2022/01/21 08:18:27;;;;;;;10.47;6.53;;;-0.90;91.90;;;-2.68;90.83;99239.97;5074833;28;20528;-79
2022/01/21 08:20:54;;;;;;;12.80;6.63;;;-0.80;91.40;;;-2.50;91.15;99277.56;5078859;28;20491;-77
2022/01/21 08:23:21;;;;;;;13.03;5.80;;;-0.80;91.30;;;-2.54;91.05;99268.16;5077243;28;20562;-77
2022/01/21 08:25:51;;;;;;;13.83;6.73;;;-0.80;91.20;;;-2.63;91.63;99259.88;5074689;28;20440;-80
2022/01/21 08:28:18;;;;;;;10.93;5.60;;;-0.90;91.10;;;-2.56;91.42;99268.28;5075982;28;20460;-79
2022/01/21 08:30:45;;;;;;;11.37;6.47;;;-0.90;91.70;;;-2.59;91.78;99253.44;5076010;28;20448;-80
2022/01/21 08:33:12;;;;;;;14.00;7.00;;;-0.90;91.60;;;-2.65;91.66;99259.13;5058935;28;20437;-79
2022/01/21 08:35:39;;;;;;;15.50;7.07;;;-0.90;91.90;;;-2.47;91.09;99253.56;5079094;28;20445;-78
2022/01/21 08:38:07;;;;;;;15.10;7.40;;;-0.90;92.20;;;-2.43;90.80;99252.41;5059635;28;20473;-78
2022/01/21 08:40:35;;;;;;;13.37;6.93;;;-0.80;91.20;;;-2.42;90.83;99260.28;5075218;28;20433;-79
2022/01/21 08:43:04;;;;;;;16.70;7.17;;;-0.70;91.00;;;-2.44;90.84;99240.97;5074838;28;20954;-78
2022/01/21 08:45:31;;;;;;;11.90;6.20;;;-0.60;90.90;;;-2.42;89.68;99201.16;5074718;28;20528;-80
2022/01/21 08:47:59;;;;;;;14.95;7.60;;;-0.40;90.40;;;-1.75;89.01;99279.63;5056064;28;20777;-82
2022/01/21 08:50:27;;;;;;;12.40;5.60;;;-0.20;89.10;;;-1.64;87.72;99278.03;5074636;28;20270;-78
2022/01/21 08:53:06;;;;;;;11.97;5.23;;;0.00;86.50;;;-1.48;86.61;99281.31;5056683;28;20762;-78
2022/01/21 08:55:34;;;;;;;11.77;6.63;;;0.20;85.60;;;-1.30;87.23;99289.78;5075058;28;20832;-77
2022/01/21 08:58:03;;;;;;;13.17;6.50;;;0.30;86.00;;;-1.27;86.02;99282.56;5074498;28;20437;-78
2022/01/21 09:00:30;;;;;;;11.53;5.47;;;0.40;84.20;;;-1.18;85.76;99287.22;5074501;28;20529;-79
2022/01/21 09:02:57;;;;;;;14.33;6.90;;;0.50;83.60;;;-1.34;85.09;99245.88;5074547;28;20516;-77
2022/01/21 09:05:24;;;;;;;13.17;6.20;;;0.60;83.00;;;-1.07;85.22;99289.09;5074636;28;20480;-77
2022/01/21 09:07:51;;;;;;;14.40;5.90;;;0.60;82.50;;;-1.20;85.53;99295.28;5074425;28;20441;-77
2022/01/21 09:10:18;;;;;;;15.90;7.20;;;0.50;83.10;;;-1.24;86.22;99282.34;5074784;28;20930;-76
2022/01/21 09:12:45;;;;;;;10.30;6.60;;;0.50;83.20;;;-1.08;86.14;99271.50;5056647;28;20437;-77
2022/01/21 09:15:13;;;;;;;13.63;7.70;;;0.50;84.40;;;-0.75;84.82;99272.66;5074749;28;20441;-78
2022/01/21 09:17:40;;;;;;;21.87;6.60;;;0.80;82.80;;;-0.49;83.32;99272.56;5074387;28;20532;-81
2022/01/21 09:20:09;;;;;;;18.37;6.07;;;1.00;80.80;;;-0.46;82.41;99269.66;5074371;28;20524;-80
2022/01/21 09:22:35;;;;;;;11.87;5.07;;;1.20;79.90;;;-0.61;83.44;99291.09;5056359;28;20525;-79
2022/01/21 09:25:03;;;;;;;12.70;5.87;;;1.10;79.80;;;-0.55;83.04;99291.59;5074934;28;20564;-80
2022/01/21 09:27:29;;;;;;;10.60;6.20;;;1.10;79.60;;;-0.72;83.40;99288.34;5057208;28;20512;-79
2022/01/21 09:29:56;;;;;;;14.80;6.07;;;1.00;79.70;;;-0.56;83.66;99293.41;5074732;28;20433;-80
2022/01/21 09:32:25;;;;;;;17.50;6.50;;;1.10;80.60;;;-0.70;83.24;99299.72;5056339;28;20441;-80
2022/01/21 09:34:52;;;;;;;13.63;5.90;;;1.00;79.80;;;-0.58;83.35;99301.47;5056419;28;20498;-79
2022/01/21 09:37:19;;;;;;;10.60;6.20;;;1.00;80.30;;;-0.72;83.08;99299.84;5074642;28;20905;-78
2022/01/21 09:39:46;;;;;;;15.23;6.50;;;1.00;80.20;;;-0.75;83.51;99297.41;5075499;28;20437;-79
2022/01/21 09:42:15;;;;;;;11.80;6.50;;;0.90;80.50;;;-0.73;84.01;99294.63;5056577;28;20499;-81
2022/01/21 09:44:45;;;;;;;10.97;6.33;;;0.90;81.30;;;-0.55;83.19;99284.47;5060569;28;20465;-76
2022/01/21 09:47:16;;;;;;;15.63;7.60;;;1.00;80.90;;;-0.47;83.07;99292.72;5072905;28;20437;-77
2022/01/21 09:49:45;;;;;;;11.67;6.70;;;1.20;81.10;;;-0.38;82.56;99293.88;5055456;28;20933;-78
2022/01/21 09:52:17;;;;;;;14.50;7.30;;;1.20;80.50;;;-0.28;82.59;99286.06;5074580;28;20433;-77
2022/01/21 09:54:47;;;;;;;10.13;5.67;;;1.30;79.70;;;-0.17;82.72;99293.22;5073667;28;20448;-79
2022/01/21 09:57:20;;;;;;;15.83;7.83;;;1.40;80.10;;;-0.13;82.13;99292.00;5073488;28;20445;-71
2022/01/21 09:59:48;;;;;;;7.97;6.33;;;1.50;79.80;;;-0.12;80.23;99280.41;5073399;28;20468;-71
2022/01/21 10:02:19;;;;;;;15.87;7.13;;;1.50;78.10;;;0.06;81.04;99288.81;5073365;28;20464;-72
2022/01/21 10:04:49;;;;;;;15.77;7.13;;;1.60;78.50;;;0.16;80.38;99294.28;5076861;28;20799;-70
2022/01/21 10:07:20;;;;;;;18.17;7.10;;;1.70;78.30;;;0.05;79.82;99286.25;5078005;28;20441;-71
2022/01/21 10:09:51;;;;;;;9.63;6.20;;;1.70;77.40;;;0.03;79.93;99298.81;5077648;28;20508;-70
2022/01/21 10:12:18;;;;;;;15.23;5.80;;;1.60;77.20;;;0.05;80.77;99307.53;5076388;28;20786;-71
2022/01/21 10:14:46;;;;;;;10.80;6.50;;;1.60;77.90;;;-0.01;80.34;99303.50;5077582;28;20437;-72
2022/01/21 10:17:15;;;;;;;14.07;6.63;;;1.60;77.60;;;0.07;79.99;99308.25;5059239;28;20810;-71
2022/01/21 10:19:45;;;;;;;16.60;7.47;;;1.70;77.30;;;0.33;80.10;99310.72;5059537;28;20513;-72
2022/01/21 10:22:19;;;;;;;16.87;6.63;;;1.80;77.80;;;0.26;79.20;99299.72;5059135;28;20987;-71
2022/01/21 10:24:57;;;;;;;12.73;7.83;;;1.80;77.10;;;0.09;79.40;99299.19;5077398;28;20491;-71
2022/01/21 10:27:25;;;;;;;9.17;6.70;;;1.80;76.80;;;0.45;80.34;99299.16;5076718;28;20935;-71
2022/01/21 10:29:52;;;;;;;13.27;7.20;;;1.90;78.00;;;0.52;78.04;99288.88;5058921;28;20904;-71
2022/01/21 10:32:34;;;;;;;10.23;6.67;;;2.10;76.60;;;0.52;77.91;99289.72;5076599;28;20512;-72
2022/01/21 10:35:01;;;;;;;16.03;7.13;;;2.10;76.10;;;0.64;78.67;99287.06;5076912;28;20437;-71
2022/01/21 10:37:35;;;;;;;14.60;7.30;;;2.20;76.70;;;0.67;78.85;99281.50;5076471;28;20566;-71
2022/01/21 10:40:06;;;;;;;10.50;6.50;;;2.20;76.70;;;0.73;77.44;99273.06;5076776;28;20445;-70
2022/01/21 10:42:33;;;;;;;14.97;6.17;;;2.30;75.60;;;0.63;78.50;99274.75;5059264;28;20487;-70
2022/01/21 10:45:01;;;;;;;7.17;6.03;;;2.30;76.10;;;0.61;78.08;99266.03;5058697;28;20465;-71
2022/01/21 10:47:31;;;;;;;12.43;6.00;;;2.30;76.00;;;0.76;77.87;99259.50;5076712;28;20567;-70
2022/01/21 10:50:05;;;;;;;11.30;6.23;;;2.30;75.80;;;0.77;76.56;99250.56;5058765;28;20441;-70
2022/01/21 10:52:37;;;;;;;9.93;5.70;;;2.40;74.90;;;0.75;77.50;99236.53;5059329;28;20782;-72
2022/01/21 10:55:06;;;;;;;10.13;5.83;;;2.30;75.10;;;0.70;76.02;99249.38;5082093;28;20437;-70
2022/01/21 10:57:36;;;;;;;9.83;5.90;;;2.30;74.20;;;0.64;76.75;99255.16;5065275;28;20437;-70
2022/01/21 11:00:08;;;;;;;15.53;6.23;;;2.30;74.50;;;0.68;76.57;99260.13;5077347;28;20469;-71
2022/01/21 11:02:42;;;;;;;16.83;7.20;;;2.30;74.60;;;0.46;76.98;99244.16;5076569;28;20524;-71